Time;durP1;ratioP1;P1;durP2;ratioP2;P2;SDS_P1;SDS_P2;PMS_P1;PMS_P2;Temp;Humidity;BMP_temperature;BMP_pressure;BME280_temperature;BME280_humidity;BME280_pressure;Samples;Min_cycle;Max_cycle;Signal;HPM_P1;HPM_P2
2022/08/08 00:01:47;;;;;;;5.90;3.97;;;;;;;;;;2202749;61;21636;-74
2022/08/08 00:04:20;;;;;;;5.40;4.35;;;;;;;;;;2418813;57;21169;-77
2022/08/08 00:06:49;;;;;;;7.93;4.97;;;;;;;;;;2417044;57;21584;-78
2022/08/08 00:09:25;;;;;;;5.72;4.55;;;;;;;;;;2202357;61;21145;-75
2022/08/08 00:11:59;;;;;;;6.55;4.80;;;;;;;;;;2418032;56;21153;-75
2022/08/08 00:14:30;;;;;;;6.30;5.03;;;;;;;;;;2418750;57;21077;-78
2022/08/08 00:17:06;;;;;;;4.95;3.90;;;;;;;;;;2201583;61;21137;-78
2022/08/08 00:19:39;;;;;;;6.90;5.00;;;;;;;;;;2202679;61;21138;-78
2022/08/08 00:22:05;;;;;;;;;;;;;;;;;;2422055;56;21134;-75
2022/08/08 00:24:34;;;;;;;5.43;4.37;;;;;;;;;;2202243;61;20067;-78
2022/08/08 00:27:03;;;;;;;6.50;4.45;;;;;;;;;;2418128;57;21157;-78
2022/08/08 00:29:33;;;;;;;7.50;4.50;;;;;;;;;;2418102;57;21150;-75
2022/08/08 00:32:01;;;;;;;5.40;4.43;;;;;;;;;;2418525;57;21141;-78
2022/08/08 00:37:42;;;;;;;5.82;4.57;;;;;;;;;;2201298;61;21114;-78
2022/08/08 00:40:28;;;;;;;6.55;4.68;;;;;;;;;;2202024;61;21653;-77
2022/08/08 00:43:04;;;;;;;6.95;4.68;;;;;;;;;;2193130;61;21580;-78
2022/08/08 00:45:50;;;;;;;8.88;5.70;;;;;;;;;;2201643;61;21158;-75
2022/08/08 00:48:38;;;;;;;8.18;5.10;;;;;;;;;;2201455;61;21113;-75
2022/08/08 00:51:23;;;;;;;5.55;4.62;;;;;;;;;;2202435;61;21090;-75
2022/08/08 00:54:00;;;;;;;8.13;4.60;;;;;;;;;;2201785;61;21139;-78
2022/08/08 00:56:49;;;;;;;7.10;4.78;;;;;;;;;;2202151;61;21097;-78
2022/08/08 00:59:34;;;;;;;7.65;5.03;;;;;;;;;;2418163;57;21145;-78
2022/08/08 01:02:07;;;;;;;9.57;5.40;;;;;;;;;;2418130;56;21587;-79
2022/08/08 01:05:02;;;;;;;6.20;4.68;;;;;;;;;;2418605;57;21081;-77
2022/08/08 01:07:56;;;;;;;7.43;5.15;;;;;;;;;;2185984;61;21150;-77
2022/08/08 01:10:58;;;;;;;7.30;4.80;;;;;;;;;;2202746;61;21077;-77
2022/08/08 01:13:43;;;;;;;6.43;4.68;;;;;;;;;;2202708;61;21077;-78
2022/08/08 01:16:36;;;;;;;7.68;4.37;;;;;;;;;;2418318;56;21604;-78
2022/08/08 01:19:34;;;;;;;5.78;4.35;;;;;;;;;;2202575;61;21074;-74
2022/08/08 01:22:20;;;;;;;6.05;4.50;;;;;;;;;;2418099;57;21146;-74
2022/08/08 01:24:58;;;;;;;6.82;4.37;;;;;;;;;;2202341;61;21133;-78
2022/08/08 01:27:50;;;;;;;6.80;5.12;;;;;;;;;;2201383;61;21121;-78
2022/08/08 01:30:52;;;;;;;4.57;3.78;;;;;;;;;;2202377;61;21082;-75
2022/08/08 01:33:41;;;;;;;6.70;4.47;;;;;;;;;;2202380;61;21447;-78
2022/08/08 01:36:28;;;;;;;4.53;3.83;;;;;;;;;;2202041;61;21106;-76
2022/08/08 01:39:04;;;;;;;5.55;4.03;;;;;;;;;;2418315;57;21094;-74
2022/08/08 01:41:39;;;;;;;4.45;3.65;;;;;;;;;;2202287;61;21101;-77
2022/08/08 01:44:13;;;;;;;4.78;3.97;;;;;;;;;;2417891;57;21238;-75
2022/08/08 01:46:45;;;;;;;6.28;4.93;;;;;;;;;;2200925;61;21109;-78
2022/08/08 01:49:17;;;;;;;7.75;4.85;;;;;;;;;;2201956;61;21141;-75
2022/08/08 01:51:50;;;;;;;6.53;5.07;;;;;;;;;;2202439;61;21173;-79
2022/08/08 01:54:23;;;;;;;5.73;4.17;;;;;;;;;;2202293;61;21170;-75
2022/08/08 01:56:58;;;;;;;5.30;3.92;;;;;;;;;;2417496;57;21153;-78
2022/08/08 01:59:38;;;;;;;6.93;4.28;;;;;;;;;;2200109;61;21656;-76
2022/08/08 02:02:10;;;;;;;5.25;4.25;;;;;;;;;;2418000;57;21110;-79
2022/08/08 02:04:42;;;;;;;7.35;4.07;;;;;;;;;;2417119;57;21217;-78
2022/08/08 02:07:12;;;;;;;6.82;4.25;;;;;;;;;;2201710;61;21212;-78
2022/08/08 02:09:47;;;;;;;6.68;4.35;;;;;;;;;;2201744;61;21109;-77
2022/08/08 02:12:20;;;;;;;5.95;4.47;;;;;;;;;;2202218;61;21086;-79
2022/08/08 02:14:49;;;;;;;4.80;4.25;;;;;;;;;;2201963;61;21086;-78
2022/08/08 02:17:20;;;;;;;7.05;5.10;;;;;;;;;;2201253;61;21123;-79
2022/08/08 02:19:49;;;;;;;6.37;4.53;;;;;;;;;;2201593;61;21157;-76
2022/08/08 02:22:31;;;;;;;5.40;3.75;;;;;;;;;;2416962;57;21145;-78
2022/08/08 02:27:39;;;;;;;6.65;4.80;;;;;;;;;;2355405;57;22061;-76
2022/08/08 02:30:08;;;;;;;5.85;4.37;;;;;;;;;;2595110;53;21567;-77
2022/08/08 02:32:40;;;;;;;6.12;4.07;;;;;;;;;;2368610;56;21589;-78
2022/08/08 02:35:21;;;;;;;6.80;3.75;;;;;;;;;;2374318;56;21050;-77
2022/08/08 02:38:25;;;;;;;4.05;3.30;;;;;;;;;;2628158;52;21604;-74
2022/08/08 02:43:54;;;;;;;5.53;3.83;;;;;;;;;;2356774;57;22054;-78
2022/08/08 02:46:43;;;;;;;7.80;4.65;;;;;;;;;;2347985;57;21113;-74
2022/08/08 02:49:25;;;;;;;5.75;4.37;;;;;;;;;;2595440;53;21673;-78
2022/08/08 02:52:01;;;;;;;6.12;4.03;;;;;;;;;;2609679;52;21035;-78
2022/08/08 02:54:59;;;;;;;5.68;4.68;;;;;;;;;;2629130;52;21055;-78
2022/08/08 02:57:57;;;;;;;6.37;4.10;;;;;;;;;;2305766;56;21083;-78
2022/08/08 03:00:37;;;;;;;5.70;4.35;;;;;;;;;;2306678;56;21038;-78
2022/08/08 03:03:35;;;;;;;7.18;4.72;;;;;;;;;;2374740;56;21059;-78
2022/08/08 03:06:40;;;;;;;6.28;4.50;;;;;;;;;;2374304;56;21039;-77
2022/08/08 03:09:26;;;;;;;8.32;4.62;;;;;;;;;;2274207;58;21094;-78
2022/08/08 03:14:52;;;;;;;6.95;4.70;;;;;;;;;;2355382;57;22062;-77
2022/08/08 03:17:22;;;;;;;5.60;4.40;;;;;;;;;;2306441;57;21054;-78
2022/08/08 03:20:01;;;;;;;6.45;4.80;;;;;;;;;;2346399;57;22317;-77
2022/08/08 03:22:27;;;;;;;6.57;4.57;;;;;;;;;;2619402;52;21086;-77
2022/08/08 03:24:55;;;;;;;6.35;4.30;;;;;;;;;;2628948;52;21134;-79
2022/08/08 03:27:29;;;;;;;6.90;4.55;;;;;;;;;;2627700;52;21130;-75
2022/08/08 03:29:59;;;;;;;4.85;4.20;;;;;;;;;;2373970;56;21046;-78
2022/08/08 03:35:12;;;;;;;6.22;5.12;;;;;;;;;;2374458;56;20987;-74
2022/08/08 03:37:39;;;;;;;5.80;4.68;;;;;;;;;;2375061;56;21541;-79
2022/08/08 03:40:07;;;;;;;5.32;4.37;;;;;;;;;;2628759;52;21064;-77
2022/08/08 03:42:36;;;;;;;4.80;4.28;;;;;;;;;;2376256;56;21047;-78
2022/08/08 03:45:11;;;;;;;8.30;4.53;;;;;;;;;;2375101;56;21115;-79
2022/08/08 03:47:38;;;;;;;7.57;4.32;;;;;;;;;;2629869;52;21086;-75
2022/08/08 03:50:14;;;;;;;5.35;4.35;;;;;;;;;;2374805;56;21031;-78
2022/08/08 03:52:41;;;;;;;5.53;4.50;;;;;;;;;;2376443;56;21042;-78
2022/08/08 03:55:10;;;;;;;4.37;3.80;;;;;;;;;;2629692;52;21118;-78
2022/08/08 03:57:37;;;;;;;7.32;4.93;;;;;;;;;;2375618;56;21038;-75
2022/08/08 04:00:09;;;;;;;7.10;4.65;;;;;;;;;;2374421;56;21027;-79
2022/08/08 04:02:36;;;;;;;5.30;4.20;;;;;;;;;;2375638;56;21059;-78
2022/08/08 04:05:04;;;;;;;4.82;4.28;;;;;;;;;;2375730;56;21131;-77
2022/08/08 04:07:36;;;;;;;5.12;4.30;;;;;;;;;;2375454;56;21608;-78
2022/08/08 04:10:04;;;;;;;6.07;4.20;;;;;;;;;;2629703;52;21075;-78
2022/08/08 04:12:31;;;;;;;5.15;4.10;;;;;;;;;;2629235;52;21054;-78
2022/08/08 04:14:58;;;;;;;6.53;4.30;;;;;;;;;;2375606;56;21038;-78
2022/08/08 04:17:25;;;;;;;6.65;4.70;;;;;;;;;;2628558;52;21054;-77
2022/08/08 04:19:52;;;;;;;5.93;4.00;;;;;;;;;;2373984;56;21683;-73
2022/08/08 04:22:19;;;;;;;5.78;3.97;;;;;;;;;;2375125;56;21158;-77
2022/08/08 04:24:46;;;;;;;5.03;4.37;;;;;;;;;;2374732;56;21106;-73
2022/08/08 04:27:13;;;;;;;5.68;4.12;;;;;;;;;;2627069;52;21027;-77
2022/08/08 04:29:40;;;;;;;5.22;3.85;;;;;;;;;;2627657;52;21038;-77
2022/08/08 04:32:09;;;;;;;5.00;3.97;;;;;;;;;;2627383;52;21031;-77
2022/08/08 04:34:36;;;;;;;5.75;4.18;;;;;;;;;;2626282;52;21110;-77
2022/08/08 04:37:03;;;;;;;5.60;3.92;;;;;;;;;;2371020;56;21098;-77
2022/08/08 04:39:30;;;;;;;5.65;4.15;;;;;;;;;;2374388;56;21054;-75
2022/08/08 04:41:57;;;;;;;5.40;3.90;;;;;;;;;;2374480;56;21063;-77
2022/08/08 04:44:24;;;;;;;5.90;4.45;;;;;;;;;;2374422;56;21557;-77
2022/08/08 04:46:51;;;;;;;5.37;4.53;;;;;;;;;;2373447;56;21035;-78
2022/08/08 04:49:19;;;;;;;6.40;4.87;;;;;;;;;;2627896;52;21177;-77
2022/08/08 04:51:46;;;;;;;5.55;4.07;;;;;;;;;;2373778;56;21090;-77
2022/08/08 04:54:13;;;;;;;5.37;3.78;;;;;;;;;;2627190;52;21102;-75
2022/08/08 04:56:40;;;;;;;5.25;4.07;;;;;;;;;;2625922;52;21051;-78
2022/08/08 04:59:07;;;;;;;6.00;4.03;;;;;;;;;;2374587;56;21063;-74
2022/08/08 05:01:34;;;;;;;5.10;4.28;;;;;;;;;;2627656;52;21090;-78
2022/08/08 05:04:01;;;;;;;4.87;3.75;;;;;;;;;;2627340;52;21094;-74
2022/08/08 05:06:28;;;;;;;4.95;4.18;;;;;;;;;;2371821;56;21118;-74
2022/08/08 05:08:56;;;;;;;10.45;5.20;;;;;;;;;;2374134;56;21405;-74
2022/08/08 05:11:23;;;;;;;5.47;4.57;;;;;;;;;;2626956;52;21039;-77
2022/08/08 05:13:50;;;;;;;8.05;4.93;;;;;;;;;;2628609;52;21051;-80
2022/08/08 05:16:17;;;;;;;7.50;5.50;;;;;;;;;;2628187;52;21070;-83
2022/08/08 05:18:44;;;;;;;6.22;4.68;;;;;;;;;;2375509;56;21073;-74
2022/08/08 05:21:12;;;;;;;6.45;4.87;;;;;;;;;;2374368;56;21102;-78
2022/08/08 05:23:40;;;;;;;6.70;5.15;;;;;;;;;;2374295;56;21095;-78
2022/08/08 05:26:07;;;;;;;6.28;4.75;;;;;;;;;;2374583;56;21124;-75
2022/08/08 05:28:34;;;;;;;7.47;5.28;;;;;;;;;;2375387;56;21043;-78
2022/08/08 05:31:01;;;;;;;4.45;3.78;;;;;;;;;;2374822;56;21031;-75
2022/08/08 05:33:28;;;;;;;8.13;5.45;;;;;;;;;;2628810;52;21099;-77
2022/08/08 05:35:57;;;;;;;6.47;5.00;;;;;;;;;;2627925;52;21055;-74
2022/08/08 05:38:26;;;;;;;9.15;6.20;;;;;;;;;;2627806;52;21039;-77
2022/08/08 05:40:54;;;;;;;9.10;5.82;;;;;;;;;;2626660;52;21377;-78
2022/08/08 05:43:24;;;;;;;7.32;4.90;;;;;;;;;;2352178;51;21074;-78
2022/08/08 05:45:52;;;;;;;6.07;5.05;;;;;;;;;;2302880;58;21046;-77
2022/08/08 05:48:19;;;;;;;5.78;4.75;;;;;;;;;;2301994;55;22186;-77
2022/08/08 05:50:46;;;;;;;10.10;5.90;;;;;;;;;;2302030;58;21145;-81
2022/08/08 05:53:14;;;;;;;7.62;5.70;;;;;;;;;;2300450;58;21082;-77
2022/08/08 05:55:43;;;;;;;7.03;4.53;;;;;;;;;;2300176;58;21588;-77
2022/08/08 05:58:11;;;;;;;6.78;3.78;;;;;;;;;;2300367;58;21066;-78
2022/08/08 06:00:38;;;;;;;6.65;3.53;;;;;;;;;;2300770;58;21573;-78
2022/08/08 06:03:10;;;;;;;6.37;4.30;;;;;;;;;;2300678;58;21568;-76
2022/08/08 06:05:40;;;;;;;5.95;4.07;;;;;;;;;;2321259;54;21126;-78
2022/08/08 06:08:09;;;;;;;6.75;4.95;;;;;;;;;;2300532;58;21583;-78
2022/08/08 06:10:38;;;;;;;5.90;4.35;;;;;;;;;;2315563;54;21130;-78
2022/08/08 06:13:06;;;;;;;5.97;4.40;;;;;;;;;;2300536;56;21632;-78
2022/08/08 06:15:33;;;;;;;6.50;5.15;;;;;;;;;;2300448;58;21146;-78
2022/08/08 06:18:00;;;;;;;6.40;4.57;;;;;;;;;;2300504;58;21133;-76
2022/08/08 06:20:27;;;;;;;8.70;4.75;;;;;;;;;;2304715;54;21058;-77
2022/08/08 06:22:54;;;;;;;6.25;4.20;;;;;;;;;;2300416;58;21134;-79
2022/08/08 06:25:22;;;;;;;7.95;4.32;;;;;;;;;;2300517;58;21062;-80
2022/08/08 06:27:51;;;;;;;9.27;4.00;;;;;;;;;;2308815;54;21075;-78
2022/08/08 06:30:18;;;;;;;8.38;4.55;;;;;;;;;;2320069;54;21553;-81
2022/08/08 06:32:48;;;;;;;5.07;4.20;;;;;;;;;;2300168;58;21067;-77
2022/08/08 06:35:15;;;;;;;5.57;4.00;;;;;;;;;;2300559;58;21067;-76
2022/08/08 06:37:46;;;;;;;6.10;4.40;;;;;;;;;;2301270;58;21134;-77
2022/08/08 06:40:15;;;;;;;6.80;4.03;;;;;;;;;;2301742;58;21070;-78
2022/08/08 06:42:46;;;;;;;4.68;3.85;;;;;;;;;;2418533;54;21070;-78
2022/08/08 06:45:14;;;;;;;6.57;3.50;;;;;;;;;;2301517;58;21047;-80
2022/08/08 06:47:41;;;;;;;5.87;3.70;;;;;;;;;;2301516;58;21062;-76
2022/08/08 06:50:10;;;;;;;5.57;3.53;;;;;;;;;;2301753;58;21074;-78
2022/08/08 06:52:38;;;;;;;5.10;3.60;;;;;;;;;;2306260;54;21082;-78
2022/08/08 06:55:06;;;;;;;5.57;3.10;;;;;;;;;;2305110;54;21157;-80
2022/08/08 06:57:33;;;;;;;4.57;3.03;;;;;;;;;;2302392;58;21089;-79
2022/08/08 07:00:00;;;;;;;5.30;3.15;;;;;;;;;;2355860;54;21075;-82
2022/08/08 07:02:31;;;;;;;3.20;2.62;;;;;;;;;;2335623;54;21902;-79
2022/08/08 07:05:02;;;;;;;5.80;3.15;;;;;;;;;;2302453;58;21042;-79
2022/08/08 07:07:33;;;;;;;4.62;2.37;;;;;;;;;;2301612;58;21105;-77
2022/08/08 07:10:02;;;;;;;4.10;2.42;;;;;;;;;;2349450;54;21539;-75
2022/08/08 07:12:32;;;;;;;4.65;2.35;;;;;;;;;;2301592;58;21121;-76
2022/08/08 07:15:03;;;;;;;4.87;2.85;;;;;;;;;;2301650;58;21122;-76
2022/08/08 07:17:32;;;;;;;3.97;2.78;;;;;;;;;;2300970;58;21150;-79
2022/08/08 07:20:03;;;;;;;5.70;2.75;;;;;;;;;;2301370;58;21062;-77
2022/08/08 07:22:33;;;;;;;4.20;2.62;;;;;;;;;;2301517;58;21077;-76
2022/08/08 07:25:01;;;;;;;4.32;2.53;;;;;;;;;;2301913;58;21146;-80
2022/08/08 07:27:32;;;;;;;3.53;2.80;;;;;;;;;;2301807;58;21130;-76
2022/08/08 07:29:59;;;;;;;4.22;2.83;;;;;;;;;;2423866;54;21110;-77
2022/08/08 07:32:27;;;;;;;5.03;2.60;;;;;;;;;;2301780;58;21066;-80
2022/08/08 07:34:55;;;;;;;4.87;3.25;;;;;;;;;;2332013;54;21533;-76
2022/08/08 07:37:22;;;;;;;6.68;3.30;;;;;;;;;;2301788;58;21130;-75
2022/08/08 07:39:51;;;;;;;3.30;2.30;;;;;;;;;;2301920;58;21050;-77
2022/08/08 07:42:18;;;;;;;3.92;2.50;;;;;;;;;;2301655;58;21066;-78
2022/08/08 07:44:47;;;;;;;4.03;2.95;;;;;;;;;;2301939;58;21679;-78
2022/08/08 07:47:14;;;;;;;5.62;2.53;;;;;;;;;;2301953;58;21141;-77
2022/08/08 07:49:41;;;;;;;4.75;2.70;;;;;;;;;;2301755;58;21059;-76
2022/08/08 07:52:10;;;;;;;4.68;2.58;;;;;;;;;;2301816;58;21066;-78
2022/08/08 07:54:41;;;;;;;3.65;2.22;;;;;;;;;;2332600;54;21644;-77
2022/08/08 07:57:15;;;;;;;5.05;2.50;;;;;;;;;;2345520;54;21130;-79
2022/08/08 07:59:41;;;;;;;;;;;;;;;;;;2305563;58;21133;-76
2022/08/08 08:02:09;;;;;;;3.05;2.37;;;;;;;;;;2302123;58;20076;-77
2022/08/08 08:04:41;;;;;;;4.82;2.50;;;;;;;;;;2302114;58;21043;-80
2022/08/08 08:07:09;;;;;;;4.35;2.28;;;;;;;;;;2301963;58;21066;-78
2022/08/08 08:09:37;;;;;;;3.05;2.30;;;;;;;;;;2302042;58;21053;-76
2022/08/08 08:12:05;;;;;;;2.25;2.03;;;;;;;;;;2302060;58;21058;-78
2022/08/08 08:14:37;;;;;;;6.03;2.67;;;;;;;;;;2348409;54;21186;-76
2022/08/08 08:17:05;;;;;;;2.58;2.10;;;;;;;;;;2407552;54;21125;-78
2022/08/08 08:19:32;;;;;;;3.33;1.85;;;;;;;;;;2305551;54;21074;-77
2022/08/08 08:21:59;;;;;;;7.05;2.20;;;;;;;;;;2302048;58;21063;-78
2022/08/08 08:24:26;;;;;;;4.05;2.22;;;;;;;;;;2302348;54;21563;-78
2022/08/08 08:26:53;;;;;;;2.42;1.98;;;;;;;;;;2301827;58;21062;-78
2022/08/08 08:29:20;;;;;;;2.62;1.62;;;;;;;;;;2301964;58;21114;-79
2022/08/08 08:31:48;;;;;;;2.87;1.95;;;;;;;;;;2301998;58;21054;-77
2022/08/08 08:34:15;;;;;;;3.35;2.00;;;;;;;;;;2301665;58;21070;-80
2022/08/08 08:36:43;;;;;;;4.20;2.47;;;;;;;;;;2301903;58;21074;-78
2022/08/08 08:39:10;;;;;;;3.55;1.70;;;;;;;;;;2301621;57;21062;-76
2022/08/08 08:41:38;;;;;;;5.32;1.73;;;;;;;;;;2301820;58;21156;-78
2022/08/08 08:44:06;;;;;;;4.03;1.90;;;;;;;;;;2301840;58;21074;-80
2022/08/08 08:46:34;;;;;;;4.87;1.95;;;;;;;;;;2302187;58;21071;-80
2022/08/08 08:49:01;;;;;;;5.45;2.78;;;;;;;;;;2329876;54;21097;-76
2022/08/08 08:51:29;;;;;;;3.58;2.00;;;;;;;;;;2301547;58;21121;-76
2022/08/08 08:53:56;;;;;;;2.35;1.73;;;;;;;;;;2301535;58;21161;-78
2022/08/08 08:56:24;;;;;;;2.12;1.42;;;;;;;;;;2301473;58;21066;-79
2022/08/08 08:58:52;;;;;;;2.55;1.70;;;;;;;;;;2301745;58;21059;-77
2022/08/08 09:01:20;;;;;;;2.17;1.60;;;;;;;;;;2318195;54;21557;-78
2022/08/08 09:03:49;;;;;;;3.42;1.50;;;;;;;;;;2301424;58;21707;-78
2022/08/08 09:06:19;;;;;;;2.42;1.40;;;;;;;;;;2301823;58;21129;-76
2022/08/08 09:08:48;;;;;;;7.60;1.70;;;;;;;;;;2450061;54;21059;-76
2022/08/08 09:11:16;;;;;;;2.15;1.40;;;;;;;;;;2301451;56;21133;-77
2022/08/08 09:13:45;;;;;;;2.12;1.23;;;;;;;;;;2301748;58;21430;-76
2022/08/08 09:16:12;;;;;;;2.42;1.75;;;;;;;;;;2301557;58;21082;-77
2022/08/08 09:18:42;;;;;;;6.60;1.90;;;;;;;;;;2308114;54;21050;-76
2022/08/08 09:21:10;;;;;;;2.10;1.20;;;;;;;;;;2301678;58;21126;-77
2022/08/08 09:23:37;;;;;;;4.37;1.67;;;;;;;;;;2301544;58;21038;-78
2022/08/08 09:26:08;;;;;;;3.33;1.60;;;;;;;;;;2305277;54;21074;-80
2022/08/08 09:31:14;;;;;;;3.78;2.08;;;;;;;;;;2317437;54;22193;-78
2022/08/08 09:33:44;;;;;;;2.58;2.03;;;;;;;;;;2312529;55;21502;-80
2022/08/08 09:36:18;;;;;;;3.65;2.25;;;;;;;;;;2291877;58;21616;-82
2022/08/08 09:38:52;;;;;;;3.67;2.20;;;;;;;;;;2312707;55;21066;-79
2022/08/08 09:41:18;;;;;;;;;;;;;;;;;;2295632;58;21044;-78
2022/08/08 09:43:49;;;;;;;2.62;2.10;;;;;;;;;;2297617;55;20096;-82
2022/08/08 09:46:16;;;;;;;7.00;2.25;;;;;;;;;;2295429;55;21064;-80
2022/08/08 09:48:45;;;;;;;3.92;2.28;;;;;;;;;;2320760;55;21063;-79
2022/08/08 09:51:15;;;;;;;5.03;2.92;;;;;;;;;;2291367;58;21134;-80
2022/08/08 09:53:48;;;;;;;3.05;2.50;;;;;;;;;;2291519;58;21314;-78
2022/08/08 09:56:16;;;;;;;5.55;2.75;;;;;;;;;;2297981;55;21087;-77
2022/08/08 09:58:48;;;;;;;4.57;2.47;;;;;;;;;;2291930;58;21645;-78
2022/08/08 10:01:17;;;;;;;5.43;2.50;;;;;;;;;;2313561;55;21079;-77
2022/08/08 10:03:46;;;;;;;5.35;2.53;;;;;;;;;;2311814;55;21154;-79
2022/08/08 10:06:14;;;;;;;4.62;2.10;;;;;;;;;;2291490;58;21135;-80
2022/08/08 10:08:44;;;;;;;4.18;2.50;;;;;;;;;;2291746;58;21684;-81
2022/08/08 10:11:12;;;;;;;5.00;2.60;;;;;;;;;;2291548;56;21314;-77
2022/08/08 10:13:51;;;;;;;3.78;2.42;;;;;;;;;;2291583;58;21234;-77
2022/08/08 10:16:18;;;;;;;8.75;2.40;;;;;;;;;;2291383;58;21043;-77
2022/08/08 10:18:45;;;;;;;3.28;2.45;;;;;;;;;;2291317;58;21054;-80
2022/08/08 10:21:13;;;;;;;3.67;2.25;;;;;;;;;;2291349;58;21055;-76
2022/08/08 10:23:41;;;;;;;4.65;2.00;;;;;;;;;;2291650;58;21195;-78
2022/08/08 10:26:10;;;;;;;4.53;2.20;;;;;;;;;;2291214;58;21052;-77
2022/08/08 10:28:37;;;;;;;6.22;2.20;;;;;;;;;;2291868;58;21554;-77
2022/08/08 10:36:29;;;;;;;6.78;1.90;;;;;;;;;;2453687;53;22114;-78
2022/08/08 10:38:58;;;;;;;3.28;1.58;;;;;;;;;;2347232;57;21556;-76
2022/08/08 10:41:27;;;;;;;2.67;1.40;;;;;;;;;;2466277;53;21557;-83
2022/08/08 10:43:56;;;;;;;6.15;2.08;;;;;;;;;;2375556;56;21082;-79
2022/08/08 10:46:26;;;;;;;3.65;1.58;;;;;;;;;;2374978;56;21055;-79
2022/08/08 10:48:54;;;;;;;2.85;1.52;;;;;;;;;;2380890;52;21117;-81
2022/08/08 10:51:21;;;;;;;4.60;1.80;;;;;;;;;;2375546;56;21653;-78
2022/08/08 10:53:49;;;;;;;3.05;1.50;;;;;;;;;;2375604;56;21122;-78
2022/08/08 10:56:17;;;;;;;3.97;1.77;;;;;;;;;;2407905;52;21074;-79
2022/08/08 10:58:44;;;;;;;2.60;1.70;;;;;;;;;;2376097;56;21042;-81
2022/08/08 11:01:12;;;;;;;2.53;1.40;;;;;;;;;;2374974;56;21137;-79
2022/08/08 11:03:43;;;;;;;5.30;1.80;;;;;;;;;;2376169;56;21047;-82
2022/08/08 11:06:10;;;;;;;3.53;1.60;;;;;;;;;;2374300;56;21090;-78
2022/08/08 11:08:39;;;;;;;4.12;1.50;;;;;;;;;;2379787;52;21039;-79
2022/08/08 11:11:08;;;;;;;4.50;1.17;;;;;;;;;;2375060;56;21039;-81
2022/08/08 11:13:39;;;;;;;2.33;1.40;;;;;;;;;;2380014;52;21370;-79
2022/08/08 11:16:07;;;;;;;5.18;1.50;;;;;;;;;;2374439;56;21130;-80
2022/08/08 11:18:34;;;;;;;2.30;1.50;;;;;;;;;;2374617;56;21043;-79
2022/08/08 11:21:02;;;;;;;4.47;1.50;;;;;;;;;;2405952;52;21054;-81
2022/08/08 11:23:32;;;;;;;1.95;1.40;;;;;;;;;;2375106;56;21067;-81
2022/08/08 11:26:01;;;;;;;1.73;1.20;;;;;;;;;;2374954;56;21054;-80
2022/08/08 11:28:30;;;;;;;3.30;1.50;;;;;;;;;;2374001;56;21058;-81
2022/08/08 11:30:59;;;;;;;2.55;1.40;;;;;;;;;;2421757;52;21122;-78
2022/08/08 11:33:27;;;;;;;2.30;1.70;;;;;;;;;;2374240;56;21624;-82
2022/08/08 11:35:55;;;;;;;4.15;1.70;;;;;;;;;;2379915;52;21130;-78
2022/08/08 11:38:22;;;;;;;3.62;1.30;;;;;;;;;;2375115;56;21063;-78
2022/08/08 11:40:50;;;;;;;4.55;1.45;;;;;;;;;;2375545;56;21086;-80
2022/08/08 11:43:18;;;;;;;2.28;1.27;;;;;;;;;;2501900;53;21046;-77
2022/08/08 11:45:46;;;;;;;4.62;1.50;;;;;;;;;;2301392;57;21452;-77
2022/08/08 11:48:13;;;;;;;2.20;1.50;;;;;;;;;;2329793;57;21045;-77
2022/08/08 11:50:40;;;;;;;3.62;1.60;;;;;;;;;;2329688;57;21109;-77
2022/08/08 11:53:08;;;;;;;2.75;1.30;;;;;;;;;;2328557;57;21055;-77
2022/08/08 11:58:13;;;;;;;2.70;1.20;;;;;;;;;;2535356;54;22106;-77
2022/08/08 12:00:44;;;;;;;2.22;1.15;;;;;;;;;;2289507;58;21150;-77
2022/08/08 12:03:16;;;;;;;3.50;1.30;;;;;;;;;;2264591;59;21077;-78
2022/08/08 12:05:44;;;;;;;3.67;1.20;;;;;;;;;;2264533;59;21551;-78
2022/08/08 12:08:11;;;;;;;1.70;1.12;;;;;;;;;;2264359;59;21070;-77
2022/08/08 12:10:46;;;;;;;5.90;1.30;;;;;;;;;;2264115;59;21061;-77
2022/08/08 12:13:15;;;;;;;2.05;1.17;;;;;;;;;;2264295;59;21188;-77
2022/08/08 12:15:47;;;;;;;5.35;1.48;;;;;;;;;;2263889;59;21085;-78
2022/08/08 12:18:14;;;;;;;2.28;1.35;;;;;;;;;;2264520;59;21061;-78
2022/08/08 12:20:42;;;;;;;1.40;0.93;;;;;;;;;;2265063;59;21161;-78
2022/08/08 12:23:09;;;;;;;1.08;0.93;;;;;;;;;;2264888;59;21132;-77
2022/08/08 12:25:36;;;;;;;2.72;1.20;;;;;;;;;;2263444;59;21076;-78
2022/08/08 12:28:12;;;;;;;3.83;1.10;;;;;;;;;;2264680;59;21157;-77
2022/08/08 12:30:39;;;;;;;2.05;0.95;;;;;;;;;;2264774;59;21053;-78
2022/08/08 12:33:16;;;;;;;4.00;1.10;;;;;;;;;;2264992;59;21139;-77
2022/08/08 12:35:44;;;;;;;3.37;1.15;;;;;;;;;;2263573;59;21085;-77
2022/08/08 12:38:12;;;;;;;4.05;1.08;;;;;;;;;;2264625;59;21081;-78
2022/08/08 12:40:40;;;;;;;1.85;0.85;;;;;;;;;;2264976;59;21081;-78
2022/08/08 12:43:08;;;;;;;2.72;1.02;;;;;;;;;;2494243;55;21053;-78
2022/08/08 12:45:36;;;;;;;1.65;1.00;;;;;;;;;;2264223;59;21073;-77
2022/08/08 12:48:04;;;;;;;1.00;0.93;;;;;;;;;;2264984;59;21069;-77
2022/08/08 12:50:42;;;;;;;2.00;1.02;;;;;;;;;;2262820;59;21149;-78
2022/08/08 12:53:25;;;;;;;3.65;1.20;;;;;;;;;;2264873;59;21156;-77
2022/08/08 12:55:53;;;;;;;1.70;0.98;;;;;;;;;;2264358;59;21093;-77
2022/08/08 12:58:20;;;;;;;2.25;1.00;;;;;;;;;;2264532;59;21122;-77
2022/08/08 13:00:49;;;;;;;1.77;0.80;;;;;;;;;;2264309;59;21109;-77
2022/08/08 13:03:23;;;;;;;1.87;1.10;;;;;;;;;;2264874;59;21077;-78
2022/08/08 13:11:57;;;;;;;1.37;0.90;;;;;;;;;;2464333;51;21084;-77
2022/08/08 13:14:35;;;;;;;1.62;0.93;;;;;;;;;;2346882;57;21643;-76
2022/08/08 13:17:03;;;;;;;4.10;1.45;;;;;;;;;;2345966;57;22177;-76
2022/08/08 13:19:30;;;;;;;3.42;1.00;;;;;;;;;;2346040;57;21120;-76
2022/08/08 13:21:57;;;;;;;2.12;0.80;;;;;;;;;;2359939;56;21099;-76
2022/08/08 13:30:13;;;;;;;2.42;1.00;;;;;;;;;;2355311;57;22078;-77
2022/08/08 13:32:40;;;;;;;4.12;1.08;;;;;;;;;;2369120;56;21564;-78
2022/08/08 13:35:09;;;;;;;2.50;1.00;;;;;;;;;;2373867;56;21054;-77
2022/08/08 13:37:36;;;;;;;2.97;1.17;;;;;;;;;;2373603;56;21082;-77
2022/08/08 13:40:05;;;;;;;3.65;1.15;;;;;;;;;;2374773;56;21028;-78
2022/08/08 13:42:33;;;;;;;1.48;0.80;;;;;;;;;;2375134;56;21043;-77
2022/08/08 13:45:01;;;;;;;3.20;1.17;;;;;;;;;;2374188;56;21050;-78
2022/08/08 13:47:28;;;;;;;2.30;1.00;;;;;;;;;;2375207;56;21039;-78
2022/08/08 13:49:59;;;;;;;1.77;0.75;;;;;;;;;;2374457;56;21059;-78
2022/08/08 13:52:26;;;;;;;2.15;1.10;;;;;;;;;;2374357;56;21067;-78
2022/08/08 13:54:55;;;;;;;5.12;1.60;;;;;;;;;;2374563;56;21369;-78
2022/08/08 13:57:26;;;;;;;1.92;1.10;;;;;;;;;;2374800;56;21043;-77
2022/08/08 14:00:04;;;;;;;7.15;1.90;;;;;;;;;;2374907;56;21345;-78
2022/08/08 14:02:33;;;;;;;3.87;1.40;;;;;;;;;;2375166;56;22198;-77
2022/08/08 14:05:02;;;;;;;3.90;1.65;;;;;;;;;;2627841;52;21081;-78
2022/08/08 14:07:30;;;;;;;5.18;1.87;;;;;;;;;;2374792;56;21043;-78
2022/08/08 14:09:59;;;;;;;3.67;1.80;;;;;;;;;;2374831;56;21079;-78
2022/08/08 14:12:27;;;;;;;5.37;1.60;;;;;;;;;;2375097;56;21109;-78
2022/08/08 14:14:54;;;;;;;4.65;2.00;;;;;;;;;;2374252;56;21031;-78
2022/08/08 14:17:21;;;;;;;6.43;2.15;;;;;;;;;;2374747;56;21119;-78
2022/08/08 14:19:48;;;;;;;3.37;1.62;;;;;;;;;;2374844;56;21031;-78
2022/08/08 14:22:17;;;;;;;3.28;1.58;;;;;;;;;;2374700;56;21095;-78
2022/08/08 14:24:48;;;;;;;4.37;1.67;;;;;;;;;;2375662;56;21102;-78
2022/08/08 14:27:17;;;;;;;2.47;1.50;;;;;;;;;;2375228;56;21187;-78
2022/08/08 14:29:52;;;;;;;2.70;1.40;;;;;;;;;;2374493;56;21051;-78
2022/08/08 14:32:20;;;;;;;4.22;1.55;;;;;;;;;;2374303;56;21125;-77
2022/08/08 14:34:50;;;;;;;4.18;1.50;;;;;;;;;;2374332;56;21114;-77
2022/08/08 14:37:18;;;;;;;3.78;1.40;;;;;;;;;;2374750;56;21593;-78
2022/08/08 14:39:49;;;;;;;4.25;1.40;;;;;;;;;;2374816;56;21023;-78
2022/08/08 14:42:24;;;;;;;2.70;1.30;;;;;;;;;;2627051;52;21066;-78
2022/08/08 14:44:55;;;;;;;3.28;1.45;;;;;;;;;;2374057;56;21533;-78
2022/08/08 14:47:22;;;;;;;4.03;1.30;;;;;;;;;;2373608;56;21716;-78
2022/08/08 14:49:49;;;;;;;4.35;1.50;;;;;;;;;;2373828;56;21104;-79
2022/08/08 14:52:16;;;;;;;5.97;2.15;;;;;;;;;;2374034;56;21592;-78
2022/08/08 14:54:46;;;;;;;3.55;1.50;;;;;;;;;;2373919;56;21106;-79
2022/08/08 14:57:14;;;;;;;3.33;1.45;;;;;;;;;;2373479;56;21031;-79
2022/08/08 14:59:41;;;;;;;5.32;2.00;;;;;;;;;;2373034;56;21090;-78
2022/08/08 15:02:08;;;;;;;3.80;1.67;;;;;;;;;;2373010;56;21034;-78
2022/08/08 15:04:35;;;;;;;2.55;1.48;;;;;;;;;;2374631;56;21110;-79
2022/08/08 15:09:37;;;;;;;4.12;1.90;;;;;;;;;;2306263;57;27839;-79
2022/08/08 15:12:05;;;;;;;3.08;1.65;;;;;;;;;;2350359;56;21134;-79
2022/08/08 15:14:32;;;;;;;6.05;1.60;;;;;;;;;;2625535;52;21915;-79
2022/08/08 15:17:00;;;;;;;3.65;1.37;;;;;;;;;;2624549;52;21074;-79
2022/08/08 15:19:27;;;;;;;6.97;1.87;;;;;;;;;;2625557;52;21110;-79
2022/08/08 15:21:55;;;;;;;3.12;1.48;;;;;;;;;;2625020;52;21146;-79
2022/08/08 15:24:22;;;;;;;1.65;1.20;;;;;;;;;;2623858;52;21588;-78
2022/08/08 15:26:49;;;;;;;4.62;1.40;;;;;;;;;;2623014;52;21277;-79
2022/08/08 15:29:16;;;;;;;3.72;1.60;;;;;;;;;;2624583;52;21043;-77
2022/08/08 15:31:44;;;;;;;3.67;1.40;;;;;;;;;;2625293;52;21047;-79
2022/08/08 15:34:11;;;;;;;1.75;1.45;;;;;;;;;;2625462;52;21126;-78
2022/08/08 15:36:41;;;;;;;4.82;1.50;;;;;;;;;;2624877;52;21111;-79
2022/08/08 15:39:08;;;;;;;4.32;1.20;;;;;;;;;;2625654;52;21337;-79
2022/08/08 15:41:35;;;;;;;3.58;1.90;;;;;;;;;;2624839;52;21627;-79
2022/08/08 15:44:02;;;;;;;1.98;1.35;;;;;;;;;;2624897;51;21060;-78